North River — WYR2549 — position and weather

sailwx.info

Track history (hours):
 
Tides and Currents Weather Stations Pressure Air Temp Water Temp Dewpoint Dewpoint Depression Visibility Wind Speed Wind Dir Waves Ship Positions

North River

Owner: CITY OF NEW YORK, Brooklyn, NY. More information available from US FCC via Universal Licensing System and Coast Guard Vessel Documentation Center.

Last reported at 2017-Jan-19 00:18 UTC. Time now 2017-Jan-20 05:54 UTC.
Position N 40°47' W 073°53'.

Length 78 m.

Type: Tanker. MMSI: 367074110.

Date/timePositionNaut miles runAvg speedWind from/ knotsBaromVisibWave heightAir tempDewpointWater temp
2017-Jan-19 00:18N 40°47' W 073°53'1 1.1
2017-Jan-18 23:13N 40°48' W 073°53'0 0.0
2017-Jan-18 22:33N 40°48' W 073°53'4 4.1
2017-Jan-18 21:33N 40°46' W 073°57'2 2.3
2017-Jan-18 20:33N 40°47' W 073°60'3 3.3
2017-Jan-18 19:33N 40°50' W 073°58'0 0.0
2017-Jan-18 18:33N 40°50' W 073°58'8 8.1
2017-Jan-18 17:33N 40°42' W 074°01'8 7.6
2017-Jan-18 16:33N 40°47' W 073°54'0 0.0
2017-Jan-17 21:04N 40°47' W 073°54'1 2.5
2017-Jan-17 20:33N 40°47' W 073°55'0 0.0
2017-Jan-17 19:33N 40°47' W 073°55'0 0.0
2017-Jan-17 18:32N 40°47' W 073°55'8 7.9
2017-Jan-17 17:33N 40°41' W 074°01'2 2.4
2017-Jan-17 16:33N 40°39' W 074°02'0 0.0
2017-Jan-17 15:33N 40°39' W 074°02'2 1.8
2017-Jan-17 14:33N 40°40' W 074°01'10 9.5
2017-Jan-17 13:33N 40°48' W 073°54'1 1.3
2017-Jan-17 12:33N 40°47' W 073°54'  
2017-Jan-09 19:05N 40°47' W 073°53'1 2.3
2017-Jan-09 18:33N 40°48' W 073°53'0 0.0
2017-Jan-09 17:33N 40°48' W 073°53'0 0.1
2017-Jan-09 16:33N 40°48' W 073°53'2 0.6
2017-Jan-09 13:17N 40°48' W 073°50'  
Track history (hours):
 
Tides and Currents Weather Stations Pressure Air Temp Water Temp Dewpoint Dewpoint Depression Visibility Wind Speed Wind Dir Waves Ship Positions

North River

Owner: CITY OF NEW YORK, Brooklyn, NY. More information available from US FCC via Universal Licensing System and Coast Guard Vessel Documentation Center.

Last reported at 2017-Jan-19 00:18 UTC. Time now 2017-Jan-20 05:54 UTC.
Position N 40°47' W 073°53'.

Length 78 m.

Type: Tanker. MMSI: 367074110.

Date/timePositionNaut miles runAvg speedWind from/ knotsBaromVisibWave heightAir tempDewpointWater temp
2017-Jan-19 00:18N 40°47' W 073°53'1 1.1
2017-Jan-18 23:13N 40°48' W 073°53'0 0.0
2017-Jan-18 22:33N 40°48' W 073°53'4 4.1
2017-Jan-18 21:33N 40°46' W 073°57'2 2.3
2017-Jan-18 20:33N 40°47' W 073°60'3 3.3
2017-Jan-18 19:33N 40°50' W 073°58'0 0.0
2017-Jan-18 18:33N 40°50' W 073°58'8 8.1
2017-Jan-18 17:33N 40°42' W 074°01'8 7.6
2017-Jan-18 16:33N 40°47' W 073°54'0 0.0
2017-Jan-17 21:04N 40°47' W 073°54'1 2.5
2017-Jan-17 20:33N 40°47' W 073°55'0 0.0
2017-Jan-17 19:33N 40°47' W 073°55'0 0.0
2017-Jan-17 18:32N 40°47' W 073°55'8 7.9
2017-Jan-17 17:33N 40°41' W 074°01'2 2.4
2017-Jan-17 16:33N 40°39' W 074°02'0 0.0
2017-Jan-17 15:33N 40°39' W 074°02'2 1.8
2017-Jan-17 14:33N 40°40' W 074°01'10 9.5
2017-Jan-17 13:33N 40°48' W 073°54'1 1.3
2017-Jan-17 12:33N 40°47' W 073°54'  
2017-Jan-09 19:05N 40°47' W 073°53'1 2.3
2017-Jan-09 18:33N 40°48' W 073°53'0 0.0
2017-Jan-09 17:33N 40°48' W 073°53'0 0.1
2017-Jan-09 16:33N 40°48' W 073°53'2 0.6
2017-Jan-09 13:17N 40°48' W 073°50'  

Dump ship's entire track history